Time;durP1;ratioP1;P1;durP2;ratioP2;P2;SDS_P1;SDS_P2;PMS_P1;PMS_P2;Temp;Humidity;BMP_temperature;BMP_pressure;BME280_temperature;BME280_humidity;BME280_pressure;Samples;Min_cycle;Max_cycle;Signal;HPM_P1;HPM_P2
2023/10/28 00:02:12;;;;;;;10.45;6.18;;;;;;;;;;5025284;28;20426;-58
2023/10/28 00:04:38;;;;;;;8.35;5.55;;;;;;;;;;5026940;28;20442;-58
2023/10/28 00:07:03;;;;;;;12.30;5.90;;;;;;;;;;5027591;28;20438;-57
2023/10/28 00:09:29;;;;;;;9.27;4.90;;;;;;;;;;5028834;28;20403;-57
2023/10/28 00:11:54;;;;;;;11.47;5.83;;;;;;;;;;5027230;28;20492;-57
2023/10/28 00:14:20;;;;;;;10.43;5.40;;;;;;;;;;5026939;28;20418;-57
2023/10/28 00:16:48;;;;;;;11.67;5.10;;;;;;;;;;5028338;28;20525;-58
2023/10/28 00:19:13;;;;;;;12.50;5.90;;;;;;;;;;5028117;28;20465;-58
2023/10/28 00:21:38;;;;;;;12.07;5.73;;;;;;;;;;5026435;28;20398;-57
2023/10/28 00:24:04;;;;;;;11.30;5.13;;;;;;;;;;5027763;28;20407;-57
2023/10/28 00:26:29;;;;;;;9.88;4.82;;;;;;;;;;5027820;28;20838;-57
2023/10/28 00:28:55;;;;;;;8.80;4.63;;;;;;;;;;5026225;28;20407;-57
2023/10/28 00:31:21;;;;;;;10.45;4.80;;;;;;;;;;5026597;28;20461;-57
2023/10/28 00:33:47;;;;;;;10.80;4.88;;;;;;;;;;5028725;28;20910;-58
2023/10/28 00:36:12;;;;;;;10.20;4.83;;;;;;;;;;5024495;28;20921;-57
2023/10/28 00:38:37;;;;;;;9.03;4.80;;;;;;;;;;5020237;28;20897;-58
2023/10/28 00:41:03;;;;;;;9.23;4.83;;;;;;;;;;5027648;28;20453;-58
2023/10/28 00:43:28;;;;;;;8.80;4.63;;;;;;;;;;5027081;28;20790;-57
2023/10/28 00:45:56;;;;;;;9.68;4.70;;;;;;;;;;5026846;28;20435;-57
2023/10/28 00:48:22;;;;;;;9.43;4.35;;;;;;;;;;5026468;28;20905;-57
2023/10/28 00:50:47;;;;;;;12.37;6.20;;;;;;;;;;5027152;28;20502;-57
2023/10/28 00:53:12;;;;;;;9.37;4.77;;;;;;;;;;5015103;28;20752;-58
2023/10/28 00:55:38;;;;;;;10.33;5.00;;;;;;;;;;5028025;28;20805;-57
2023/10/28 00:58:04;;;;;;;9.52;4.63;;;;;;;;;;5027292;28;20407;-58
2023/10/28 01:00:29;;;;;;;10.13;4.80;;;;;;;;;;5025311;28;20407;-58
2023/10/28 01:02:54;;;;;;;11.35;4.70;;;;;;;;;;5047870;28;20421;-57
2023/10/28 01:05:19;;;;;;;12.03;4.80;;;;;;;;;;5047139;28;20751;-57
2023/10/28 01:07:45;;;;;;;10.10;5.20;;;;;;;;;;5029021;28;20757;-57
2023/10/28 01:10:11;;;;;;;8.38;4.53;;;;;;;;;;5047288;28;20915;-57
2023/10/28 01:12:37;;;;;;;10.13;4.70;;;;;;;;;;5047312;28;20408;-58
2023/10/28 01:15:03;;;;;;;11.93;5.20;;;;;;;;;;5043804;28;20394;-58
2023/10/28 01:17:29;;;;;;;10.27;5.18;;;;;;;;;;5047187;28;20440;-57
2023/10/28 01:19:56;;;;;;;10.48;5.00;;;;;;;;;;5047142;28;20402;-57
2023/10/28 01:22:23;;;;;;;9.88;5.00;;;;;;;;;;5045611;28;20377;-57
2023/10/28 01:24:50;;;;;;;13.15;4.68;;;;;;;;;;5046762;28;20455;-58
2023/10/28 01:27:16;;;;;;;10.63;4.55;;;;;;;;;;5046053;28;20409;-58
2023/10/28 01:29:41;;;;;;;12.02;4.97;;;;;;;;;;5046567;28;20409;-57
2023/10/28 01:32:06;;;;;;;11.17;4.10;;;;;;;;;;5045126;28;20456;-58
2023/10/28 01:34:32;;;;;;;9.50;4.27;;;;;;;;;;5046718;28;20401;-57
2023/10/28 01:36:57;;;;;;;11.68;4.07;;;;;;;;;;5046792;28;20991;-57
2023/10/28 01:39:23;;;;;;;11.30;3.87;;;;;;;;;;5044061;28;20387;-57
2023/10/28 01:41:49;;;;;;;9.93;3.70;;;;;;;;;;5046425;28;20428;-57
2023/10/28 01:44:16;;;;;;;9.85;3.53;;;;;;;;;;5046097;28;20451;-57
2023/10/28 01:46:41;;;;;;;12.02;3.85;;;;;;;;;;5044727;28;20428;-57
2023/10/28 01:49:06;;;;;;;10.17;3.73;;;;;;;;;;5045612;28;20756;-58
2023/10/28 01:51:32;;;;;;;10.37;3.73;;;;;;;;;;5047475;28;20833;-58
2023/10/28 01:53:57;;;;;;;10.10;3.40;;;;;;;;;;5045388;28;20440;-58
2023/10/28 01:56:22;;;;;;;9.03;3.30;;;;;;;;;;5044894;28;20821;-57
2023/10/28 01:58:48;;;;;;;9.37;3.63;;;;;;;;;;5046765;28;20431;-57
2023/10/28 02:01:13;;;;;;;12.07;4.30;;;;;;;;;;5051295;28;20410;-58
2023/10/28 02:03:38;;;;;;;11.30;3.83;;;;;;;;;;5059176;28;20433;-58
2023/10/28 02:06:04;;;;;;;10.90;4.37;;;;;;;;;;5062473;28;20458;-58
2023/10/28 02:08:29;;;;;;;11.68;4.40;;;;;;;;;;5061529;28;20395;-58
2023/10/28 02:10:55;;;;;;;13.50;4.03;;;;;;;;;;5058008;28;20507;-57
2023/10/28 02:13:20;;;;;;;11.20;3.83;;;;;;;;;;5036834;28;20395;-57
2023/10/28 02:15:49;;;;;;;9.93;3.45;;;;;;;;;;5025504;28;20399;-57
2023/10/28 02:18:15;;;;;;;13.52;4.50;;;;;;;;;;5030651;28;20406;-58
2023/10/28 02:20:41;;;;;;;11.80;3.70;;;;;;;;;;5023184;28;20403;-58
2023/10/28 02:23:09;;;;;;;10.07;3.70;;;;;;;;;;5019951;28;20473;-58
2023/10/28 02:25:34;;;;;;;10.07;3.60;;;;;;;;;;5021992;28;20407;-58
2023/10/28 02:28:00;;;;;;;8.40;3.40;;;;;;;;;;5024881;28;21037;-58
2023/10/28 02:30:25;;;;;;;11.02;4.05;;;;;;;;;;5008390;28;20401;-57
2023/10/28 02:32:51;;;;;;;9.77;3.47;;;;;;;;;;5023677;28;20442;-58
2023/10/28 02:35:16;;;;;;;9.77;3.13;;;;;;;;;;5029653;28;20441;-58
2023/10/28 02:37:41;;;;;;;9.03;3.17;;;;;;;;;;5026584;28;20399;-57
2023/10/28 02:40:08;;;;;;;9.87;3.20;;;;;;;;;;5026910;28;20545;-58
2023/10/28 02:42:34;;;;;;;9.30;3.50;;;;;;;;;;5029497;28;20492;-58
2023/10/28 02:44:59;;;;;;;11.45;3.65;;;;;;;;;;5019117;28;21253;-57
2023/10/28 02:47:24;;;;;;;8.27;3.17;;;;;;;;;;5019000;28;20395;-58
2023/10/28 02:49:50;;;;;;;10.60;3.90;;;;;;;;;;5026280;28;20517;-58
2023/10/28 02:52:15;;;;;;;13.40;3.90;;;;;;;;;;5026253;28;20894;-57
2023/10/28 02:54:40;;;;;;;10.23;3.40;;;;;;;;;;5026880;28;20419;-58
2023/10/28 02:57:06;;;;;;;10.70;3.50;;;;;;;;;;5030797;28;20403;-58
2023/10/28 02:59:31;;;;;;;12.68;3.65;;;;;;;;;;5032025;28;20468;-58
2023/10/28 03:01:57;;;;;;;9.13;2.90;;;;;;;;;;5024895;28;20421;-57
2023/10/28 03:04:22;;;;;;;9.25;3.50;;;;;;;;;;5023963;28;20905;-58
2023/10/28 03:06:48;;;;;;;6.83;2.57;;;;;;;;;;5018186;28;20406;-57
2023/10/28 03:09:13;;;;;;;7.63;3.10;;;;;;;;;;5015255;28;20417;-57
2023/10/28 03:11:38;;;;;;;8.93;2.93;;;;;;;;;;5017200;28;20406;-57
2023/10/28 03:14:04;;;;;;;8.40;3.20;;;;;;;;;;5026415;28;20424;-58
2023/10/28 03:16:30;;;;;;;8.20;3.25;;;;;;;;;;5027989;28;20408;-57
2023/10/28 03:18:56;;;;;;;7.47;2.60;;;;;;;;;;5027769;28;20554;-58
2023/10/28 03:21:21;;;;;;;7.88;2.50;;;;;;;;;;5028267;28;20974;-57
2023/10/28 03:23:46;;;;;;;8.67;2.97;;;;;;;;;;5027577;28;20413;-58
2023/10/28 03:26:12;;;;;;;7.37;2.53;;;;;;;;;;5026458;28;20414;-58
2023/10/28 03:28:37;;;;;;;7.93;2.70;;;;;;;;;;5018318;28;20391;-58
2023/10/28 03:31:09;;;;;;;7.87;2.60;;;;;;;;;;5018199;28;20411;-57
2023/10/28 03:33:35;;;;;;;9.65;2.88;;;;;;;;;;5017798;28;20431;-58
2023/10/28 03:36:01;;;;;;;8.43;2.40;;;;;;;;;;5023997;28;20498;-58
2023/10/28 03:38:26;;;;;;;8.77;2.93;;;;;;;;;;5026678;28;20991;-57
2023/10/28 03:40:52;;;;;;;6.80;2.30;;;;;;;;;;5026365;28;20414;-57
2023/10/28 03:43:17;;;;;;;5.88;2.25;;;;;;;;;;5028178;28;20445;-57
2023/10/28 03:45:42;;;;;;;7.67;2.30;;;;;;;;;;5033574;28;20437;-58
2023/10/28 03:48:07;;;;;;;6.73;2.20;;;;;;;;;;5025574;28;20401;-57
2023/10/28 03:50:33;;;;;;;4.90;1.80;;;;;;;;;;5026446;28;20391;-57
2023/10/28 03:52:58;;;;;;;6.50;2.13;;;;;;;;;;5020161;28;20422;-57
2023/10/28 03:55:23;;;;;;;5.50;1.93;;;;;;;;;;5017920;28;20399;-57
2023/10/28 03:57:49;;;;;;;6.47;2.20;;;;;;;;;;5020438;28;20765;-58
2023/10/28 04:00:14;;;;;;;5.47;2.17;;;;;;;;;;5027997;28;20440;-57
2023/10/28 04:02:39;;;;;;;8.17;2.57;;;;;;;;;;5027117;28;20518;-57
2023/10/28 04:05:07;;;;;;;6.00;1.98;;;;;;;;;;5027489;28;21634;-57
2023/10/28 04:07:32;;;;;;;5.70;1.80;;;;;;;;;;5033861;28;20404;-57
2023/10/28 04:10:03;;;;;;;5.27;1.90;;;;;;;;;;5029415;28;20401;-57
2023/10/28 04:12:29;;;;;;;6.80;2.10;;;;;;;;;;5020875;28;20422;-58
2023/10/28 04:14:54;;;;;;;5.50;1.80;;;;;;;;;;5025594;28;20581;-57
2023/10/28 04:17:19;;;;;;;4.57;1.83;;;;;;;;;;5039496;28;21137;-57
2023/10/28 04:19:44;;;;;;;5.20;1.70;;;;;;;;;;5062636;28;20415;-58
2023/10/28 04:22:10;;;;;;;5.17;1.70;;;;;;;;;;5062055;28;20425;-57
2023/10/28 04:24:36;;;;;;;4.80;1.55;;;;;;;;;;5060386;28;20397;-58
2023/10/28 04:27:01;;;;;;;3.83;1.30;;;;;;;;;;5064578;28;20447;-58
2023/10/28 04:29:29;;;;;;;5.67;1.70;;;;;;;;;;5035050;28;20395;-58
2023/10/28 04:31:54;;;;;;;4.65;1.40;;;;;;;;;;5026529;28;20440;-57
2023/10/28 04:34:20;;;;;;;3.43;1.37;;;;;;;;;;5029876;28;20469;-57
2023/10/28 04:36:45;;;;;;;3.77;1.30;;;;;;;;;;5029640;28;21312;-58
2023/10/28 04:39:10;;;;;;;4.60;1.30;;;;;;;;;;5030970;28;20414;-58
2023/10/28 04:41:35;;;;;;;4.03;1.38;;;;;;;;;;5030733;28;20413;-58
2023/10/28 04:44:01;;;;;;;3.80;1.40;;;;;;;;;;5027700;28;20430;-58
2023/10/28 04:46:27;;;;;;;4.47;1.50;;;;;;;;;;5028817;28;20478;-57
2023/10/28 04:48:52;;;;;;;4.70;1.50;;;;;;;;;;5026822;28;20947;-58
2023/10/28 04:51:17;;;;;;;3.77;1.50;;;;;;;;;;5020861;28;20946;-57
2023/10/28 04:53:43;;;;;;;4.97;1.57;;;;;;;;;;5021903;28;20439;-57
2023/10/28 04:56:09;;;;;;;3.58;1.48;;;;;;;;;;5029996;28;20443;-58
2023/10/28 04:58:34;;;;;;;3.33;1.53;;;;;;;;;;5029544;28;20408;-57
2023/10/28 05:00:59;;;;;;;6.33;1.80;;;;;;;;;;5027366;28;20425;-57
2023/10/28 05:03:25;;;;;;;4.63;1.80;;;;;;;;;;5026764;28;20608;-57
2023/10/28 05:05:50;;;;;;;4.60;1.70;;;;;;;;;;5025204;28;20432;-58
2023/10/28 05:08:16;;;;;;;4.50;1.60;;;;;;;;;;5024707;28;20409;-57
2023/10/28 05:10:41;;;;;;;3.63;1.43;;;;;;;;;;5023519;28;20481;-57
2023/10/28 05:13:07;;;;;;;3.75;1.70;;;;;;;;;;5018536;28;20464;-58
2023/10/28 05:15:32;;;;;;;4.13;1.60;;;;;;;;;;5016781;28;21033;-57
2023/10/28 05:17:57;;;;;;;4.63;1.60;;;;;;;;;;5020791;28;20427;-57
2023/10/28 05:20:23;;;;;;;5.13;1.57;;;;;;;;;;5025921;28;20451;-57
2023/10/28 05:22:48;;;;;;;5.10;1.70;;;;;;;;;;5025250;28;20414;-57
2023/10/28 05:25:13;;;;;;;4.93;1.70;;;;;;;;;;5030106;28;20433;-57
2023/10/28 05:27:39;;;;;;;3.77;1.60;;;;;;;;;;5043530;28;20488;-57
2023/10/28 05:30:05;;;;;;;4.20;1.60;;;;;;;;;;5045432;28;20931;-57
2023/10/28 05:32:30;;;;;;;5.00;1.83;;;;;;;;;;5046814;28;20409;-58
2023/10/28 05:34:56;;;;;;;3.30;1.53;;;;;;;;;;5044219;28;20413;-56
2023/10/28 05:37:21;;;;;;;6.75;1.92;;;;;;;;;;5041885;28;20422;-57
2023/10/28 05:39:47;;;;;;;4.60;1.70;;;;;;;;;;5042435;28;20416;-58
2023/10/28 05:42:14;;;;;;;4.25;1.60;;;;;;;;;;5038942;28;20408;-57
2023/10/28 05:44:39;;;;;;;5.18;1.88;;;;;;;;;;5044949;28;20508;-58
2023/10/28 05:47:04;;;;;;;4.65;1.80;;;;;;;;;;5040910;28;20878;-58
2023/10/28 05:49:30;;;;;;;4.00;1.70;;;;;;;;;;5042048;28;20881;-57
2023/10/28 05:51:55;;;;;;;4.63;1.80;;;;;;;;;;5043475;28;20402;-58
2023/10/28 05:54:20;;;;;;;4.57;1.67;;;;;;;;;;5041590;28;20729;-57
2023/10/28 05:56:46;;;;;;;4.33;1.70;;;;;;;;;;5043800;28;20489;-57
2023/10/28 05:59:11;;;;;;;5.60;1.80;;;;;;;;;;5041819;28;20499;-57
2023/10/28 06:01:37;;;;;;;5.97;2.17;;;;;;;;;;5040289;28;20492;-57
2023/10/28 06:04:02;;;;;;;4.37;1.97;;;;;;;;;;5045606;28;20480;-58
2023/10/28 06:06:28;;;;;;;3.25;1.90;;;;;;;;;;5039251;28;20612;-58
2023/10/28 06:08:53;;;;;;;5.43;2.00;;;;;;;;;;5045752;28;20413;-57
2023/10/28 06:11:19;;;;;;;5.27;1.90;;;;;;;;;;5046387;28;20421;-58
2023/10/28 06:13:44;;;;;;;5.40;2.40;;;;;;;;;;5045407;28;20809;-57
2023/10/28 06:16:10;;;;;;;5.80;2.67;;;;;;;;;;5044214;28;20408;-57
2023/10/28 06:18:36;;;;;;;6.28;2.50;;;;;;;;;;5043636;28;20427;-57
2023/10/28 06:21:01;;;;;;;5.57;2.40;;;;;;;;;;5042414;28;20433;-58
2023/10/28 06:23:26;;;;;;;6.80;2.70;;;;;;;;;;5042463;28;20433;-58
2023/10/28 06:25:51;;;;;;;6.03;2.30;;;;;;;;;;5041771;28;20484;-58
2023/10/28 06:28:18;;;;;;;5.20;2.42;;;;;;;;;;5045783;28;20953;-58
2023/10/28 06:30:49;;;;;;;5.22;2.30;;;;;;;;;;5044233;28;20484;-57
2023/10/28 06:33:14;;;;;;;4.85;2.40;;;;;;;;;;5045452;28;20445;-57
2023/10/28 06:35:40;;;;;;;6.53;2.50;;;;;;;;;;5045247;28;20445;-57
2023/10/28 06:38:06;;;;;;;4.27;2.03;;;;;;;;;;5043011;28;20393;-58
2023/10/28 06:40:32;;;;;;;6.87;2.60;;;;;;;;;;5044959;28;20429;-57
2023/10/28 06:42:57;;;;;;;5.35;2.15;;;;;;;;;;5046706;28;20471;-57
2023/10/28 06:45:22;;;;;;;6.40;2.77;;;;;;;;;;5045624;28;20864;-57
2023/10/28 06:47:48;;;;;;;11.23;4.70;;;;;;;;;;5047576;28;20418;-57
2023/10/28 06:50:13;;;;;;;10.27;6.57;;;;;;;;;;5049541;28;20757;-58
2023/10/28 06:52:39;;;;;;;6.97;2.58;;;;;;;;;;5049592;28;20405;-57
2023/10/28 06:55:05;;;;;;;5.53;2.33;;;;;;;;;;5048583;28;20467;-58
2023/10/28 06:57:30;;;;;;;5.78;2.50;;;;;;;;;;5047311;28;20904;-58
2023/10/28 06:59:56;;;;;;;5.33;2.53;;;;;;;;;;5049921;28;20444;-57
2023/10/28 07:02:21;;;;;;;5.28;2.33;;;;;;;;;;5049391;28;20386;-57
2023/10/28 07:04:47;;;;;;;3.70;1.90;;;;;;;;;;5047378;28;20496;-57
2023/10/28 07:07:14;;;;;;;6.17;2.53;;;;;;;;;;5049563;28;20416;-57
2023/10/28 07:09:39;;;;;;;4.30;1.83;;;;;;;;;;5050191;28;20508;-57
2023/10/28 07:12:05;;;;;;;5.40;2.23;;;;;;;;;;5046709;28;20860;-57
2023/10/28 07:14:30;;;;;;;7.10;2.60;;;;;;;;;;5049907;28;20433;-57
2023/10/28 07:16:55;;;;;;;9.13;2.73;;;;;;;;;;5050011;28;20433;-57
2023/10/28 07:19:21;;;;;;;5.10;2.30;;;;;;;;;;5047549;28;20397;-57
2023/10/28 07:21:46;;;;;;;6.15;2.17;;;;;;;;;;5048603;28;20733;-57
2023/10/28 07:24:11;;;;;;;4.73;2.40;;;;;;;;;;5049551;28;20421;-57
2023/10/28 07:26:37;;;;;;;6.53;1.97;;;;;;;;;;5048670;28;20395;-57
2023/10/28 07:29:06;;;;;;;6.07;2.00;;;;;;;;;;5046892;28;20444;-58
2023/10/28 07:31:31;;;;;;;6.93;2.20;;;;;;;;;;5049955;28;20397;-58
2023/10/28 07:33:57;;;;;;;5.47;2.50;;;;;;;;;;5046065;28;20941;-57
2023/10/28 07:36:22;;;;;;;5.10;2.00;;;;;;;;;;5039395;28;20401;-57
2023/10/28 07:38:48;;;;;;;5.60;2.00;;;;;;;;;;5048895;28;20405;-58
2023/10/28 07:41:13;;;;;;;5.72;2.10;;;;;;;;;;5048006;28;20403;-58
2023/10/28 07:43:39;;;;;;;5.37;1.90;;;;;;;;;;5048290;28;20432;-58
2023/10/28 07:46:04;;;;;;;5.93;2.20;;;;;;;;;;5047519;28;20416;-58
2023/10/28 07:48:30;;;;;;;4.97;2.37;;;;;;;;;;5048329;28;20958;-58
2023/10/28 07:50:55;;;;;;;7.03;2.30;;;;;;;;;;5048693;28;20512;-58
2023/10/28 07:53:20;;;;;;;4.37;2.13;;;;;;;;;;5046521;28;20432;-58
2023/10/28 07:55:46;;;;;;;5.87;2.10;;;;;;;;;;5048430;28;20768;-58
2023/10/28 07:58:12;;;;;;;4.97;2.27;;;;;;;;;;5047870;28;20425;-58
2023/10/28 08:00:37;;;;;;;5.50;2.40;;;;;;;;;;5047174;28;20979;-57
2023/10/28 08:03:03;;;;;;;5.67;2.10;;;;;;;;;;5047675;28;20428;-58
2023/10/28 08:05:29;;;;;;;4.75;1.65;;;;;;;;;;5048382;28;20397;-58
2023/10/28 08:07:54;;;;;;;6.10;2.00;;;;;;;;;;5047181;28;20413;-58
2023/10/28 08:10:22;;;;;;;3.00;1.70;;;;;;;;;;5046729;28;20422;-58
2023/10/28 08:12:53;;;;;;;5.57;2.10;;;;;;;;;;5044614;28;20450;-57
2023/10/28 08:15:19;;;;;;;5.45;1.80;;;;;;;;;;5046403;28;20405;-57
2023/10/28 08:17:45;;;;;;;6.80;1.77;;;;;;;;;;5046304;28;20410;-57
2023/10/28 08:20:11;;;;;;;5.70;1.90;;;;;;;;;;5048380;28;20413;-57
2023/10/28 08:22:37;;;;;;;3.10;1.60;;;;;;;;;;5047763;28;20397;-57
2023/10/28 08:25:04;;;;;;;5.78;2.05;;;;;;;;;;5042987;28;20421;-58
2023/10/28 08:27:31;;;;;;;4.80;1.77;;;;;;;;;;5044591;28;20880;-58
2023/10/28 08:29:57;;;;;;;4.47;2.10;;;;;;;;;;5047681;28;20397;-57
2023/10/28 08:32:23;;;;;;;4.17;1.70;;;;;;;;;;5047464;28;20721;-57
2023/10/28 08:34:49;;;;;;;5.43;2.00;;;;;;;;;;5046583;28;20837;-57
2023/10/28 08:37:14;;;;;;;4.77;1.97;;;;;;;;;;5046964;28;20760;-58
2023/10/28 08:39:41;;;;;;;4.83;1.70;;;;;;;;;;5048539;28;20405;-58
2023/10/28 08:42:06;;;;;;;3.33;1.80;;;;;;;;;;5045468;28;20405;-57
2023/10/28 08:44:32;;;;;;;5.35;1.80;;;;;;;;;;5047660;28;21440;-58
2023/10/28 08:46:57;;;;;;;3.58;1.70;;;;;;;;;;5048398;28;20776;-58
2023/10/28 08:49:23;;;;;;;5.97;1.90;;;;;;;;;;5044291;28;20396;-58
2023/10/28 08:51:48;;;;;;;5.70;1.60;;;;;;;;;;5044838;28;20397;-57
2023/10/28 08:54:14;;;;;;;4.95;1.80;;;;;;;;;;5047848;28;20424;-57
2023/10/28 08:56:40;;;;;;;4.63;1.60;;;;;;;;;;5046089;28;20413;-58
2023/10/28 08:59:07;;;;;;;7.37;1.80;;;;;;;;;;5045165;28;20406;-58
2023/10/28 09:01:33;;;;;;;5.65;1.67;;;;;;;;;;5044501;28;21124;-57
2023/10/28 09:03:59;;;;;;;3.93;1.53;;;;;;;;;;5045676;28;20445;-57
2023/10/28 09:06:24;;;;;;;4.93;1.70;;;;;;;;;;5037856;28;20392;-57
2023/10/28 09:08:49;;;;;;;7.00;2.03;;;;;;;;;;5051440;28;20430;-58
2023/10/28 09:11:15;;;;;;;6.30;1.80;;;;;;;;;;5062631;28;20406;-57
2023/10/28 09:13:42;;;;;;;3.77;1.60;;;;;;;;;;5055891;28;20772;-57
2023/10/28 09:16:08;;;;;;;4.82;1.50;;;;;;;;;;5056043;28;20520;-58
2023/10/28 09:18:40;;;;;;;4.40;1.60;;;;;;;;;;5055642;28;20807;-58
2023/10/28 09:21:05;;;;;;;7.07;1.90;;;;;;;;;;5061837;28;20541;-58
2023/10/28 09:23:31;;;;;;;5.65;1.98;;;;;;;;;;5059160;28;20538;-58
2023/10/28 09:25:56;;;;;;;5.07;1.70;;;;;;;;;;5063000;28;20399;-58
2023/10/28 09:28:22;;;;;;;5.63;1.43;;;;;;;;;;5045203;28;20831;-58
2023/10/28 09:30:47;;;;;;;12.30;5.70;;;;;;;;;;5057978;28;20414;-58
2023/10/28 09:33:13;;;;;;;16.48;8.45;;;;;;;;;;5060954;28;20514;-58
2023/10/28 09:35:39;;;;;;;26.13;14.93;;;;;;;;;;5063460;28;20465;-57
2023/10/28 09:38:04;;;;;;;6.73;2.83;;;;;;;;;;5058047;28;20735;-58
2023/10/28 09:40:31;;;;;;;14.20;7.40;;;;;;;;;;5043180;28;20397;-58
2023/10/28 09:42:56;;;;;;;7.53;2.20;;;;;;;;;;5062894;28;20451;-58
2023/10/28 09:45:22;;;;;;;28.47;16.53;;;;;;;;;;5061114;28;20398;-58
2023/10/28 09:47:47;;;;;;;10.55;5.28;;;;;;;;;;5040994;28;20487;-58
2023/10/28 09:50:14;;;;;;;22.00;12.40;;;;;;;;;;5063038;28;20509;-58
2023/10/28 09:52:41;;;;;;;9.98;4.47;;;;;;;;;;5061766;28;20435;-58
2023/10/28 09:55:06;;;;;;;9.15;4.78;;;;;;;;;;5056323;28;20404;-59
2023/10/28 09:57:33;;;;;;;7.28;3.35;;;;;;;;;;5045294;28;20882;-58
2023/10/28 09:59:58;;;;;;;5.72;1.42;;;;;;;;;;5063305;28;20705;-58
2023/10/28 10:02:28;;;;;;;5.33;1.80;;;;;;;;;;5058351;28;20445;-58
2023/10/28 10:04:58;;;;;;;5.72;1.50;;;;;;;;;;5061249;28;21012;-58
2023/10/28 10:07:23;;;;;;;8.17;2.00;;;;;;;;;;5044150;28;20392;-58
2023/10/28 10:09:49;;;;;;;5.38;1.85;;;;;;;;;;5061538;28;20458;-58
2023/10/28 10:12:14;;;;;;;7.77;2.07;;;;;;;;;;5040469;28;20417;-58
2023/10/28 10:14:45;;;;;;;6.87;2.00;;;;;;;;;;5062523;28;20415;-58
2023/10/28 10:17:14;;;;;;;6.47;2.00;;;;;;;;;;5061337;28;20396;-58
2023/10/28 10:19:39;;;;;;;5.53;2.30;;;;;;;;;;5057832;28;20408;-58
2023/10/28 10:22:06;;;;;;;6.60;1.83;;;;;;;;;;5064091;28;20935;-58
2023/10/28 10:24:31;;;;;;;9.98;4.28;;;;;;;;;;5066687;28;20404;-58
2023/10/28 10:26:57;;;;;;;8.48;4.18;;;;;;;;;;5064548;28;20404;-58
2023/10/28 10:29:26;;;;;;;7.18;2.92;;;;;;;;;;5062779;28;20396;-58
2023/10/28 10:31:51;;;;;;;4.90;1.60;;;;;;;;;;5067273;28;21028;-58
2023/10/28 10:34:30;;;;;;;5.47;1.60;;;;;;;;;;5065339;28;20411;-58
2023/10/28 10:36:55;;;;;;;5.78;1.52;;;;;;;;;;5060611;28;20403;-58
2023/10/28 10:39:20;;;;;;;7.43;1.43;;;;;;;;;;5066120;28;20387;-58
2023/10/28 10:41:49;;;;;;;8.50;1.67;;;;;;;;;;5066754;28;20411;-58
2023/10/28 10:44:21;;;;;;;7.60;1.60;;;;;;;;;;5061373;28;20407;-58
2023/10/28 10:46:47;;;;;;;7.43;1.70;;;;;;;;;;5063260;28;20410;-58
2023/10/28 10:49:13;;;;;;;6.27;1.73;;;;;;;;;;5065373;28;20414;-58
2023/10/28 10:51:38;;;;;;;5.68;1.50;;;;;;;;;;5064882;28;20407;-58
2023/10/28 10:54:04;;;;;;;5.00;1.60;;;;;;;;;;5060914;28;20428;-58
2023/10/28 10:56:29;;;;;;;5.05;1.33;;;;;;;;;;5065805;28;20407;-58
2023/10/28 10:58:55;;;;;;;5.63;1.57;;;;;;;;;;5065804;28;20856;-58
2023/10/28 11:01:20;;;;;;;6.47;1.43;;;;;;;;;;5059377;28;20844;-58
2023/10/28 11:03:45;;;;;;;5.30;1.30;;;;;;;;;;5065629;28;20396;-58
2023/10/28 11:06:12;;;;;;;4.43;1.20;;;;;;;;;;5066036;28;20395;-58
2023/10/28 11:08:38;;;;;;;5.22;1.40;;;;;;;;;;5062023;28;20479;-58
2023/10/28 11:11:03;;;;;;;5.60;1.47;;;;;;;;;;5062736;28;21003;-58
2023/10/28 11:13:29;;;;;;;6.05;1.25;;;;;;;;;;5065553;28;20408;-58
2023/10/28 11:15:54;;;;;;;3.72;1.10;;;;;;;;;;5064425;28;20728;-58
2023/10/28 11:18:20;;;;;;;6.37;1.93;;;;;;;;;;5061364;28;20408;-58
2023/10/28 11:20:47;;;;;;;5.20;1.30;;;;;;;;;;5065644;28;20415;-58
2023/10/28 11:23:12;;;;;;;5.63;1.20;;;;;;;;;;5047852;28;20411;-58
2023/10/28 11:25:37;;;;;;;5.07;1.27;;;;;;;;;;5060058;28;20400;-58
2023/10/28 11:28:04;;;;;;;5.40;2.10;;;;;;;;;;5065668;28;20407;-58
2023/10/28 11:30:30;;;;;;;6.82;1.60;;;;;;;;;;5066467;28;20392;-58
2023/10/28 11:32:55;;;;;;;6.33;1.47;;;;;;;;;;5070767;28;20416;-58
2023/10/28 11:35:21;;;;;;;5.10;1.13;;;;;;;;;;5059446;28;20421;-58
2023/10/28 11:37:46;;;;;;;5.25;1.42;;;;;;;;;;5059868;28;20439;-58
2023/10/28 11:40:11;;;;;;;6.13;1.67;;;;;;;;;;5064362;28;20762;-58
2023/10/28 11:42:37;;;;;;;6.53;1.57;;;;;;;;;;5060806;28;20408;-58
2023/10/28 11:45:03;;;;;;;4.97;1.50;;;;;;;;;;5062012;28;20416;-58
2023/10/28 11:47:29;;;;;;;8.07;2.10;;;;;;;;;;5065024;28;20955;-58
2023/10/28 11:49:57;;;;;;;5.80;1.50;;;;;;;;;;5061661;28;20411;-58
2023/10/28 11:52:22;;;;;;;5.97;1.42;;;;;;;;;;5062738;28;20387;-58
2023/10/28 11:54:48;;;;;;;5.57;1.20;;;;;;;;;;5063711;28;20461;-58
2023/10/28 11:57:13;;;;;;;4.97;1.40;;;;;;;;;;5063361;28;20929;-58
2023/10/28 11:59:38;;;;;;;7.00;1.30;;;;;;;;;;5061077;28;20413;-58
2023/10/28 12:02:04;;;;;;;8.52;1.60;;;;;;;;;;5064039;28;20491;-58
2023/10/28 12:04:29;;;;;;;5.47;1.23;;;;;;;;;;5047068;28;20404;-58
2023/10/28 12:06:54;;;;;;;6.30;1.30;;;;;;;;;;5059358;28;20416;-58
2023/10/28 12:09:20;;;;;;;5.17;1.77;;;;;;;;;;5063251;28;20402;-58
2023/10/28 12:11:46;;;;;;;7.00;1.77;;;;;;;;;;5065020;28;20400;-58
2023/10/28 12:14:11;;;;;;;4.73;1.50;;;;;;;;;;5060367;28;20411;-58
2023/10/28 12:16:38;;;;;;;8.68;1.80;;;;;;;;;;5063175;28;20414;-58
2023/10/28 12:19:05;;;;;;;6.28;1.40;;;;;;;;;;5063266;28;20860;-58
2023/10/28 12:21:30;;;;;;;7.50;1.73;;;;;;;;;;5061434;28;20399;-58
2023/10/28 12:23:56;;;;;;;6.67;1.63;;;;;;;;;;5060806;28;20421;-58
2023/10/28 12:26:21;;;;;;;6.63;1.60;;;;;;;;;;5063273;28;20956;-58
2023/10/28 12:28:48;;;;;;;6.95;1.50;;;;;;;;;;5063865;28;20400;-58
2023/10/28 12:31:14;;;;;;;8.07;1.70;;;;;;;;;;5058075;28;20418;-57
2023/10/28 12:33:39;;;;;;;8.10;1.60;;;;;;;;;;5064198;28;20776;-58
2023/10/28 12:36:06;;;;;;;5.60;1.70;;;;;;;;;;5062093;28;20423;-58
2023/10/28 12:38:32;;;;;;;7.18;1.85;;;;;;;;;;5061671;28;20442;-58
2023/10/28 12:40:57;;;;;;;8.23;1.70;;;;;;;;;;5062543;28;20892;-58
2023/10/28 12:43:22;;;;;;;7.67;1.93;;;;;;;;;;5061784;28;20421;-58
2023/10/28 12:45:48;;;;;;;6.30;1.60;;;;;;;;;;5062297;28;20399;-58
2023/10/28 12:48:13;;;;;;;8.47;1.50;;;;;;;;;;5060351;28;20648;-58
2023/10/28 12:50:39;;;;;;;7.93;1.60;;;;;;;;;;5063615;28;20400;-58
2023/10/28 12:53:04;;;;;;;6.80;1.35;;;;;;;;;;5063900;28;20913;-58
2023/10/28 12:55:30;;;;;;;7.90;1.90;;;;;;;;;;5058568;28;20392;-58
2023/10/28 12:57:55;;;;;;;6.90;1.50;;;;;;;;;;5045579;28;20392;-58
2023/10/28 13:00:21;;;;;;;7.80;1.67;;;;;;;;;;5063688;28;20459;-58
2023/10/28 13:02:48;;;;;;;8.70;2.22;;;;;;;;;;5047121;28;20607;-58
2023/10/28 13:05:13;;;;;;;8.38;1.50;;;;;;;;;;5045637;28;20985;-58
2023/10/28 13:07:39;;;;;;;8.00;1.80;;;;;;;;;;5047862;28;20425;-58
2023/10/28 13:10:04;;;;;;;8.40;1.70;;;;;;;;;;5046576;28;20409;-58
2023/10/28 13:12:31;;;;;;;7.88;2.10;;;;;;;;;;5045191;28;20494;-58
2023/10/28 13:14:57;;;;;;;7.97;2.03;;;;;;;;;;5047373;28;20405;-58
2023/10/28 13:17:22;;;;;;;9.05;1.92;;;;;;;;;;5046232;28;20393;-58
2023/10/28 13:19:48;;;;;;;8.37;1.70;;;;;;;;;;5045227;28;20408;-58
2023/10/28 13:22:14;;;;;;;8.73;2.00;;;;;;;;;;5047230;28;20412;-58
2023/10/28 13:24:39;;;;;;;9.23;2.00;;;;;;;;;;5046607;28;20413;-58
2023/10/28 13:27:04;;;;;;;8.53;1.87;;;;;;;;;;5046035;28;20404;-58
2023/10/28 13:29:30;;;;;;;8.30;2.07;;;;;;;;;;5050667;28;20409;-58
2023/10/28 13:31:55;;;;;;;8.47;2.07;;;;;;;;;;5044807;28;20394;-58
2023/10/28 13:34:20;;;;;;;8.20;1.67;;;;;;;;;;5031210;28;20416;-58
2023/10/28 13:36:47;;;;;;;10.23;2.10;;;;;;;;;;5022307;28;20407;-58
2023/10/28 13:39:12;;;;;;;9.77;2.00;;;;;;;;;;5023199;28;20466;-58
2023/10/28 13:41:37;;;;;;;11.43;2.50;;;;;;;;;;5026389;28;20411;-58
2023/10/28 13:44:03;;;;;;;8.80;2.13;;;;;;;;;;5028998;28;20468;-58
2023/10/28 13:46:28;;;;;;;9.27;2.20;;;;;;;;;;5029496;28;20861;-58
2023/10/28 13:48:53;;;;;;;11.35;2.10;;;;;;;;;;5029232;28;20413;-58
2023/10/28 13:51:19;;;;;;;9.33;2.27;;;;;;;;;;5027469;28;20407;-58
2023/10/28 13:53:44;;;;;;;10.60;2.30;;;;;;;;;;5030000;28;20403;-58
2023/10/28 13:56:10;;;;;;;10.37;2.20;;;;;;;;;;5024878;28;20390;-58
2023/10/28 13:58:35;;;;;;;11.00;2.20;;;;;;;;;;5020551;28;20403;-58
2023/10/28 14:01:07;;;;;;;11.03;2.40;;;;;;;;;;5021414;28;20405;-59
2023/10/28 14:03:33;;;;;;;11.40;2.38;;;;;;;;;;5025757;28;20411;-58
2023/10/28 14:06:01;;;;;;;9.95;2.03;;;;;;;;;;5028273;28;20502;-58
2023/10/28 14:08:27;;;;;;;10.97;2.57;;;;;;;;;;5028096;28;20418;-58
2023/10/28 14:10:54;;;;;;;10.38;2.50;;;;;;;;;;5026201;28;20407;-58
2023/10/28 14:13:20;;;;;;;9.68;2.03;;;;;;;;;;5043061;28;20444;-58
2023/10/28 14:15:45;;;;;;;9.97;2.20;;;;;;;;;;5042492;28;20756;-58
2023/10/28 14:18:13;;;;;;;8.60;2.03;;;;;;;;;;5034647;28;20395;-58
2023/10/28 14:20:38;;;;;;;10.05;2.10;;;;;;;;;;5033558;28;20448;-58
2023/10/28 14:23:03;;;;;;;11.87;2.33;;;;;;;;;;5035288;28;20489;-58
2023/10/28 14:25:28;;;;;;;11.30;2.47;;;;;;;;;;5036969;28;20386;-58
2023/10/28 14:27:54;;;;;;;8.93;2.40;;;;;;;;;;5042065;28;20416;-58
2023/10/28 14:30:19;;;;;;;11.07;2.07;;;;;;;;;;5032210;28;20407;-58
2023/10/28 14:32:44;;;;;;;12.20;2.43;;;;;;;;;;5027362;28;20423;-58